Time;durP1;ratioP1;P1;durP2;ratioP2;P2;SDS_P1;SDS_P2;PMS_P1;PMS_P2;Temp;Humidity;BMP_temperature;BMP_pressure;BME280_temperature;BME280_humidity;BME280_pressure;Samples;Min_cycle;Max_cycle;Signal;HPM_P1;HPM_P2
2022/03/04 00:02:00;;;;;;;20.65;6.13;;;3.30;99.90;;;;;;5092959;28;20028;-75
2022/03/04 00:04:26;;;;;;;15.55;5.25;;;3.20;99.90;;;;;;5092072;28;20028;-75
2022/03/04 00:06:53;;;;;;;15.52;6.18;;;3.20;99.90;;;;;;5093711;28;20431;-76
2022/03/04 00:09:20;;;;;;;15.88;6.18;;;3.20;99.90;;;;;;5093712;28;20469;-76
2022/03/04 00:11:47;;;;;;;18.48;6.85;;;3.20;99.90;;;;;;5092158;28;20019;-74
2022/03/04 00:14:12;;;;;;;19.25;6.80;;;3.20;99.90;;;;;;5093631;28;20065;-75
2022/03/04 00:16:38;;;;;;;16.27;5.78;;;3.20;99.90;;;;;;5093368;28;20020;-76
2022/03/04 00:19:07;;;;;;;22.15;7.13;;;3.10;99.90;;;;;;5093758;28;20032;-75
2022/03/04 00:21:37;;;;;;;;;;;3.10;99.90;;;;;;5093810;28;20020;-75
2022/03/04 00:24:05;;;;;;;13.95;5.03;;;3.10;99.90;;;;;;5093261;28;19915;-75
2022/03/04 00:26:30;;;;;;;15.40;5.97;;;3.10;99.90;;;;;;5093475;28;20023;-75
2022/03/04 00:28:57;;;;;;;16.50;5.78;;;3.10;99.90;;;;;;5093529;28;20020;-75
2022/03/04 00:31:23;;;;;;;15.98;6.22;;;3.10;99.90;;;;;;5093265;28;20477;-74
2022/03/04 00:33:49;;;;;;;18.52;7.70;;;3.00;99.90;;;;;;5091984;28;20027;-74
2022/03/04 00:36:14;;;;;;;17.58;6.68;;;3.00;99.90;;;;;;5093007;28;20024;-75
2022/03/04 00:38:40;;;;;;;20.55;6.20;;;3.00;99.90;;;;;;5093180;28;20030;-74
2022/03/04 00:41:05;;;;;;;14.45;5.47;;;2.90;99.90;;;;;;5093166;28;20024;-75
2022/03/04 00:43:31;;;;;;;18.15;6.70;;;2.90;99.90;;;;;;5091866;28;20082;-75
2022/03/04 00:45:56;;;;;;;19.90;6.22;;;2.90;99.90;;;;;;5093088;28;20051;-75
2022/03/04 00:48:22;;;;;;;17.25;6.20;;;2.80;99.90;;;;;;5093310;28;20484;-74
2022/03/04 00:50:48;;;;;;;15.73;5.47;;;2.80;99.90;;;;;;5091840;28;20016;-74
2022/03/04 00:53:13;;;;;;;16.50;6.35;;;2.80;99.90;;;;;;5093026;28;20047;-75
2022/03/04 00:55:39;;;;;;;20.85;6.20;;;2.80;99.90;;;;;;5093176;28;20028;-74
2022/03/04 00:58:06;;;;;;;15.93;5.95;;;2.70;99.90;;;;;;5093024;28;20385;-74
2022/03/04 01:00:32;;;;;;;20.10;6.53;;;2.70;99.90;;;;;;5093051;28;20032;-75
2022/03/04 01:02:57;;;;;;;15.77;6.93;;;2.70;99.90;;;;;;5092805;28;20028;-75
2022/03/04 01:05:23;;;;;;;17.42;6.70;;;2.70;99.90;;;;;;5091533;28;20496;-74
2022/03/04 01:07:48;;;;;;;22.30;7.35;;;2.60;99.90;;;;;;5093149;28;20017;-74
2022/03/04 01:10:14;;;;;;;17.48;6.88;;;2.60;99.90;;;;;;5092887;28;20153;-75
2022/03/04 01:12:40;;;;;;;16.65;5.93;;;2.60;99.90;;;;;;5094559;28;20469;-75
2022/03/04 01:15:06;;;;;;;18.63;6.50;;;2.60;99.90;;;;;;5095172;28;20119;-75
2022/03/04 01:17:31;;;;;;;17.63;6.03;;;2.60;99.90;;;;;;5096165;28;20526;-75
2022/03/04 01:19:57;;;;;;;21.80;6.60;;;2.50;99.90;;;;;;5096885;28;20028;-75
2022/03/04 01:22:22;;;;;;;22.10;6.88;;;2.50;99.90;;;;;;5096470;28;20111;-75
2022/03/04 01:24:48;;;;;;;20.88;6.72;;;2.50;99.90;;;;;;5096334;28;20120;-75
2022/03/04 01:27:13;;;;;;;19.35;6.57;;;2.50;99.90;;;;;;5096214;28;20036;-75
2022/03/04 01:29:39;;;;;;;17.38;5.97;;;2.40;99.90;;;;;;5096583;28;20024;-75
2022/03/04 01:32:05;;;;;;;15.60;6.10;;;2.40;99.90;;;;;;5096023;28;20095;-75
2022/03/04 01:34:30;;;;;;;18.42;6.15;;;2.30;99.90;;;;;;5096057;28;20570;-75
2022/03/04 01:36:56;;;;;;;18.92;6.47;;;2.30;99.90;;;;;;5096452;28;20031;-75
2022/03/04 01:39:22;;;;;;;17.88;6.82;;;2.30;99.90;;;;;;5096179;28;20027;-75
2022/03/04 01:41:47;;;;;;;19.20;7.25;;;2.30;99.90;;;;;;5094588;28;20397;-75
2022/03/04 01:44:13;;;;;;;14.98;5.60;;;2.20;99.90;;;;;;5095753;28;20024;-74
2022/03/04 01:46:38;;;;;;;18.17;6.65;;;2.20;99.90;;;;;;5095867;28;20493;-74
2022/03/04 01:49:04;;;;;;;18.60;6.30;;;2.20;99.90;;;;;;5096264;28;20054;-75
2022/03/04 01:51:30;;;;;;;19.42;6.68;;;2.20;99.90;;;;;;5095703;28;20474;-75
2022/03/04 01:54:03;;;;;;;17.60;6.63;;;2.10;99.90;;;;;;5095658;28;20024;-74
2022/03/04 01:56:29;;;;;;;19.55;6.50;;;2.10;99.90;;;;;;5095652;28;20031;-75
2022/03/04 01:58:55;;;;;;;18.90;5.80;;;2.10;99.90;;;;;;5094212;28;20032;-73
2022/03/04 02:01:21;;;;;;;19.33;6.53;;;2.00;99.90;;;;;;5095525;28;20038;-74
2022/03/04 02:03:46;;;;;;;21.55;7.38;;;2.00;99.90;;;;;;5095413;28;20024;-73
2022/03/04 02:06:12;;;;;;;16.90;7.35;;;2.00;99.90;;;;;;5094021;28;20024;-74
2022/03/04 02:08:38;;;;;;;18.85;6.20;;;1.90;99.90;;;;;;5095619;28;20024;-73
2022/03/04 02:11:03;;;;;;;21.80;8.00;;;2.00;99.90;;;;;;5093948;28;20020;-73
2022/03/04 02:13:29;;;;;;;20.33;6.28;;;1.90;99.90;;;;;;5093945;28;20024;-73
2022/03/04 02:15:54;;;;;;;22.63;6.88;;;1.90;99.90;;;;;;5095129;28;20020;-73
2022/03/04 02:18:20;;;;;;;17.15;6.53;;;1.80;99.90;;;;;;5095178;28;20035;-73
2022/03/04 02:20:52;;;;;;;17.23;5.75;;;1.80;99.90;;;;;;5095786;28;20025;-73
2022/03/04 02:23:19;;;;;;;18.27;6.30;;;1.80;99.90;;;;;;5093370;28;20043;-73
2022/03/04 02:25:49;;;;;;;20.77;6.35;;;1.70;99.90;;;;;;5095482;28;20440;-73
2022/03/04 02:28:17;;;;;;;20.05;7.40;;;1.70;99.90;;;;;;5093714;28;20028;-73
2022/03/04 02:30:43;;;;;;;18.92;6.57;;;1.70;99.90;;;;;;5094366;28;20035;-73
2022/03/04 02:33:08;;;;;;;19.52;6.47;;;1.70;99.90;;;;;;5095038;28;20385;-73
2022/03/04 02:35:35;;;;;;;20.02;6.65;;;1.70;99.90;;;;;;5095307;28;20028;-73
2022/03/04 02:38:02;;;;;;;23.52;7.07;;;1.60;99.90;;;;;;5094862;28;20485;-73
2022/03/04 02:40:27;;;;;;;19.88;6.70;;;1.50;99.90;;;;;;5093410;28;20024;-73
2022/03/04 02:42:54;;;;;;;17.65;6.30;;;1.50;99.90;;;;;;5093638;28;20073;-73
2022/03/04 02:45:19;;;;;;;17.85;6.50;;;1.50;99.90;;;;;;5095206;28;20489;-73
2022/03/04 02:47:45;;;;;;;20.08;7.18;;;1.50;99.90;;;;;;5093335;28;20042;-73
2022/03/04 02:50:10;;;;;;;22.15;7.32;;;1.50;99.90;;;;;;5093329;28;20052;-73
2022/03/04 02:52:36;;;;;;;20.38;6.10;;;1.40;99.90;;;;;;5093301;28;20024;-73
2022/03/04 02:55:02;;;;;;;17.45;6.40;;;1.50;99.90;;;;;;5094616;28;20099;-73
2022/03/04 02:57:28;;;;;;;18.80;6.30;;;1.40;99.90;;;;;;5095006;28;20081;-73
2022/03/04 02:59:53;;;;;;;18.92;6.68;;;1.40;99.90;;;;;;5094346;28;20028;-73
2022/03/04 03:02:19;;;;;;;27.92;7.22;;;1.40;99.90;;;;;;5093131;28;20036;-73
2022/03/04 03:04:45;;;;;;;18.15;6.80;;;1.40;99.90;;;;;;5094235;28;20047;-73
2022/03/04 03:07:10;;;;;;;23.23;7.13;;;1.30;99.90;;;;;;5094239;28;20021;-74
2022/03/04 03:09:38;;;;;;;21.58;7.53;;;1.30;99.90;;;;;;5094662;28;20031;-74
2022/03/04 03:12:04;;;;;;;17.83;6.53;;;1.20;99.90;;;;;;5092839;28;20012;-74
2022/03/04 03:14:30;;;;;;;22.05;7.28;;;1.20;99.90;;;;;;5094096;28;20032;-74
2022/03/04 03:16:55;;;;;;;21.00;6.15;;;1.20;99.90;;;;;;5092660;28;20024;-73
2022/03/04 03:19:21;;;;;;;22.00;6.65;;;1.20;99.90;;;;;;5092774;28;20052;-73
2022/03/04 03:21:46;;;;;;;18.63;6.25;;;1.20;99.90;;;;;;5094336;28;20027;-73
2022/03/04 03:24:12;;;;;;;22.02;7.05;;;1.10;99.90;;;;;;5094133;28;20024;-74
2022/03/04 03:26:37;;;;;;;17.77;6.53;;;1.10;99.90;;;;;;5093841;28;20110;-73
2022/03/04 03:29:03;;;;;;;19.52;7.05;;;1.10;99.90;;;;;;5093885;28;20027;-74
2022/03/04 03:31:28;;;;;;;20.20;7.15;;;1.10;99.90;;;;;;5093876;28;20024;-74
2022/03/04 03:33:54;;;;;;;20.17;7.65;;;1.10;99.90;;;;;;5094064;28;20469;-73
2022/03/04 03:36:20;;;;;;;19.73;6.88;;;1.10;99.90;;;;;;5094031;28;20507;-73
2022/03/04 03:38:46;;;;;;;18.90;6.35;;;1.10;99.90;;;;;;5092548;28;20031;-73
2022/03/04 03:41:11;;;;;;;18.83;6.78;;;1.10;99.90;;;;;;5092646;28;20385;-73
2022/03/04 03:43:37;;;;;;;21.60;7.38;;;1.10;99.90;;;;;;5093844;28;20105;-73
2022/03/04 03:46:03;;;;;;;23.05;6.85;;;1.10;99.90;;;;;;5093563;28;20025;-73
2022/03/04 03:48:28;;;;;;;17.65;6.03;;;1.10;99.90;;;;;;5093524;28;20093;-74
2022/03/04 03:50:54;;;;;;;21.10;7.00;;;1.00;99.90;;;;;;5093222;28;20016;-74
2022/03/04 03:53:19;;;;;;;24.20;7.30;;;1.00;99.90;;;;;;5093945;28;20048;-73
2022/03/04 03:55:45;;;;;;;17.98;6.28;;;1.00;99.90;;;;;;5092570;28;20020;-74
2022/03/04 03:58:10;;;;;;;20.30;6.75;;;1.00;99.90;;;;;;5092255;28;20024;-75
2022/03/04 04:00:36;;;;;;;21.35;6.13;;;1.00;99.90;;;;;;5093275;28;20099;-75
2022/03/04 04:03:02;;;;;;;18.38;6.60;;;1.10;99.90;;;;;;5093495;28;20032;-75
2022/03/04 04:05:28;;;;;;;20.27;6.57;;;1.00;99.90;;;;;;5093462;28;20016;-76
2022/03/04 04:07:53;;;;;;;21.25;7.15;;;1.00;99.90;;;;;;5093485;28;20051;-74
2022/03/04 04:10:20;;;;;;;18.30;6.28;;;1.00;99.90;;;;;;5093569;28;20016;-74
2022/03/04 04:12:45;;;;;;;22.17;6.53;;;1.00;99.90;;;;;;5093496;28;20016;-74
2022/03/04 04:15:11;;;;;;;20.02;6.32;;;1.00;99.90;;;;;;5093161;28;20084;-75
2022/03/04 04:17:36;;;;;;;20.13;6.88;;;1.00;99.90;;;;;;5093133;28;20119;-73
2022/03/04 04:20:02;;;;;;;20.27;6.70;;;1.00;99.90;;;;;;5092031;28;20047;-73
2022/03/04 04:22:28;;;;;;;20.92;7.03;;;1.00;99.90;;;;;;5093620;28;20487;-73
2022/03/04 04:24:53;;;;;;;18.35;6.85;;;1.00;99.90;;;;;;5092903;28;20024;-75
2022/03/04 04:27:19;;;;;;;24.10;6.72;;;1.00;99.90;;;;;;5092176;28;20028;-76
2022/03/04 04:29:44;;;;;;;18.10;6.50;;;0.90;99.90;;;;;;5093735;28;20500;-76
2022/03/04 04:32:10;;;;;;;22.48;7.30;;;1.00;99.90;;;;;;5092905;28;20378;-75
2022/03/04 04:34:36;;;;;;;23.25;7.35;;;1.00;99.90;;;;;;5093313;28;20060;-76
2022/03/04 04:37:02;;;;;;;18.95;6.70;;;1.00;99.90;;;;;;5093421;28;20012;-76
2022/03/04 04:39:27;;;;;;;21.35;6.10;;;1.00;99.90;;;;;;5091891;28;20024;-76
2022/03/04 04:41:53;;;;;;;22.42;7.05;;;0.90;99.90;;;;;;5093685;28;20107;-76
2022/03/04 04:44:18;;;;;;;22.55;7.88;;;0.90;99.90;;;;;;5093272;28;20473;-76
2022/03/04 04:46:44;;;;;;;21.23;7.82;;;0.80;99.90;;;;;;5092747;28;20020;-76
2022/03/04 04:49:09;;;;;;;17.30;6.68;;;0.80;99.90;;;;;;5095696;28;20076;-76
2022/03/04 04:51:35;;;;;;;20.00;7.15;;;0.80;99.90;;;;;;5097344;28;20024;-75
2022/03/04 04:54:01;;;;;;;18.63;7.10;;;0.80;99.90;;;;;;5095838;28;20039;-75
2022/03/04 04:56:27;;;;;;;25.17;6.82;;;0.70;99.90;;;;;;5095816;28;20028;-77
2022/03/04 04:58:52;;;;;;;21.83;6.60;;;0.70;99.90;;;;;;5097221;28;20031;-76
2022/03/04 05:01:18;;;;;;;19.05;6.53;;;0.70;99.90;;;;;;5096705;28;20024;-76
2022/03/04 05:03:44;;;;;;;19.55;6.43;;;0.70;99.90;;;;;;5096711;28;20028;-76
2022/03/04 05:06:10;;;;;;;22.98;7.28;;;0.70;99.90;;;;;;5096581;28;20020;-76
2022/03/04 05:08:35;;;;;;;19.63;6.50;;;0.70;99.90;;;;;;5096535;28;20435;-76
2022/03/04 05:11:01;;;;;;;18.70;6.63;;;0.70;99.90;;;;;;5096624;28;20028;-76
2022/03/04 05:13:26;;;;;;;18.63;6.18;;;0.60;99.90;;;;;;5096758;28;20024;-76
2022/03/04 05:15:52;;;;;;;20.13;6.45;;;0.60;99.90;;;;;;5095042;28;20509;-76
2022/03/04 05:18:18;;;;;;;23.48;7.53;;;0.60;99.90;;;;;;5096471;28;20051;-76
2022/03/04 05:20:46;;;;;;;23.55;8.10;;;0.60;99.90;;;;;;5096148;28;20024;-76
2022/03/04 05:23:58;;;;;;;20.65;7.22;;;0.50;99.90;;;;;;5096486;28;20427;-76
2022/03/04 05:25:57;;;;;;;21.70;6.82;;;0.60;99.90;;;;;;5096043;28;20031;-76
2022/03/04 05:28:23;;;;;;;22.75;6.65;;;0.50;99.90;;;;;;5096333;28;20023;-76
2022/03/04 05:30:48;;;;;;;22.90;8.05;;;0.50;99.90;;;;;;5095119;28;20039;-76
2022/03/04 05:33:14;;;;;;;20.88;7.82;;;0.50;99.90;;;;;;5094998;28;20028;-76
2022/03/04 05:35:39;;;;;;;20.23;7.50;;;0.50;99.90;;;;;;5095860;28;20335;-76
2022/03/04 05:38:05;;;;;;;17.30;5.93;;;0.40;99.90;;;;;;5096164;28;20024;-76
2022/03/04 05:40:32;;;;;;;20.55;6.72;;;0.40;99.90;;;;;;5094631;28;20488;-76
2022/03/04 05:42:57;;;;;;;19.00;6.68;;;0.30;99.90;;;;;;5094826;28;20016;-75
2022/03/04 05:45:23;;;;;;;18.20;6.55;;;0.30;99.90;;;;;;5094347;28;20039;-76
2022/03/04 05:47:49;;;;;;;23.00;7.55;;;0.40;99.90;;;;;;5096100;28;20032;-76
2022/03/04 05:50:15;;;;;;;19.95;7.30;;;0.30;99.90;;;;;;5095785;28;20036;-76
2022/03/04 05:52:41;;;;;;;20.60;7.20;;;0.30;99.90;;;;;;5096242;28;20017;-76
2022/03/04 05:55:07;;;;;;;19.55;7.20;;;0.30;99.90;;;;;;5095459;28;20081;-76
2022/03/04 05:57:32;;;;;;;20.63;6.57;;;0.30;99.90;;;;;;5094358;28;20046;-76
2022/03/04 05:59:59;;;;;;;19.10;7.00;;;0.20;99.90;;;;;;5096282;28;20028;-76
2022/03/04 06:02:27;;;;;;;21.35;6.80;;;0.20;99.90;;;;;;5095701;28;20028;-76
2022/03/04 06:04:52;;;;;;;17.40;6.00;;;0.10;99.90;;;;;;5095177;28;20028;-77
2022/03/04 06:07:18;;;;;;;23.63;7.75;;;0.10;99.90;;;;;;5096368;28;20552;-77
2022/03/04 06:09:43;;;;;;;25.10;7.65;;;0.00;99.90;;;;;;5095987;28;20051;-76
2022/03/04 06:12:09;;;;;;;19.10;6.97;;;0.00;99.90;;;;;;5094112;28;20144;-76
2022/03/04 06:14:34;;;;;;;22.23;7.53;;;0.00;99.90;;;;;;5095457;28;20381;-77
2022/03/04 06:17:00;;;;;;;25.33;7.88;;;0.00;99.90;;;;;;5093733;28;20028;-76
2022/03/04 06:19:26;;;;;;;22.98;7.60;;;0.00;99.90;;;;;;5095491;28;20020;-76
2022/03/04 06:21:51;;;;;;;16.40;6.75;;;0.00;99.90;;;;;;5097444;28;20024;-77
2022/03/04 06:24:20;;;;;;;20.77;6.50;;;0.00;99.90;;;;;;5093722;28;20389;-76
2022/03/04 06:26:45;;;;;;;19.95;7.15;;;0.00;99.90;;;;;;5095132;28;20103;-76
2022/03/04 06:29:11;;;;;;;19.88;6.35;;;0.00;99.90;;;;;;5095001;28;20043;-75
2022/03/04 06:31:36;;;;;;;24.48;7.82;;;0.00;99.90;;;;;;5095036;28;20099;-76
2022/03/04 06:34:02;;;;;;;24.23;8.02;;;0.00;99.90;;;;;;5093362;28;20016;-75
2022/03/04 06:36:27;;;;;;;22.10;7.55;;;0.10;99.90;;;;;;5094765;28;20016;-76
2022/03/04 06:38:54;;;;;;;20.70;7.45;;;0.10;99.90;;;;;;5093344;28;20449;-76
2022/03/04 06:41:19;;;;;;;22.08;7.65;;;0.00;99.90;;;;;;5093259;28;20020;-76
2022/03/04 06:43:45;;;;;;;21.10;7.38;;;0.00;99.90;;;;;;5093054;28;20507;-76
2022/03/04 06:46:11;;;;;;;20.00;7.07;;;0.10;99.90;;;;;;5093474;28;20415;-76
2022/03/04 06:48:36;;;;;;;20.83;7.45;;;0.10;99.90;;;;;;5094737;28;20024;-76
2022/03/04 06:51:03;;;;;;;19.00;7.15;;;0.10;99.90;;;;;;5093578;28;20020;-76
2022/03/04 06:53:28;;;;;;;18.48;6.70;;;0.20;99.90;;;;;;5094801;28;20016;-77
2022/03/04 06:55:54;;;;;;;20.92;7.00;;;0.20;99.90;;;;;;5094600;28;20036;-75
2022/03/04 06:58:20;;;;;;;26.40;7.95;;;0.30;99.90;;;;;;5093251;28;20123;-75
2022/03/04 07:00:47;;;;;;;20.25;7.03;;;0.30;99.90;;;;;;5094629;28;20020;-75
2022/03/04 07:03:13;;;;;;;21.73;7.40;;;0.40;99.90;;;;;;5094858;28;20374;-76
2022/03/04 07:05:39;;;;;;;22.02;7.13;;;0.50;99.90;;;;;;5094306;28;20020;-76
2022/03/04 07:08:11;;;;;;;22.42;7.53;;;0.50;99.90;;;;;;5094718;28;20016;-76
2022/03/04 07:10:40;;;;;;;22.15;6.38;;;0.50;99.90;;;;;;5093708;28;20096;-76
2022/03/04 07:13:06;;;;;;;24.17;7.18;;;0.60;99.90;;;;;;5094019;28;20374;-76
2022/03/04 07:15:32;;;;;;;21.85;7.03;;;0.60;99.90;;;;;;5093142;28;20437;-76
2022/03/04 07:17:57;;;;;;;22.45;7.30;;;0.70;99.90;;;;;;5094078;28;20032;-77
2022/03/04 07:20:23;;;;;;;20.45;7.13;;;0.80;99.90;;;;;;5094259;28;20112;-77
2022/03/04 07:22:48;;;;;;;19.92;6.45;;;0.80;99.90;;;;;;5094253;28;20077;-77
2022/03/04 07:25:15;;;;;;;22.02;7.32;;;0.90;99.90;;;;;;5092632;28;20024;-77
2022/03/04 07:27:41;;;;;;;22.20;7.57;;;1.00;99.90;;;;;;5094352;28;20020;-77
2022/03/04 07:30:13;;;;;;;18.98;7.28;;;1.00;99.90;;;;;;5094303;28;20478;-77
2022/03/04 07:32:39;;;;;;;22.92;6.82;;;1.10;99.90;;;;;;5093841;28;20477;-77
2022/03/04 07:35:07;;;;;;;20.80;7.25;;;1.20;99.90;;;;;;5094021;28;20020;-77
2022/03/04 07:37:36;;;;;;;19.13;7.38;;;1.30;99.90;;;;;;5092599;28;20024;-77
2022/03/04 07:40:07;;;;;;;21.40;7.22;;;1.40;99.90;;;;;;5092750;28;20198;-77
2022/03/04 07:42:32;;;;;;;21.38;7.63;;;1.50;99.90;;;;;;5094581;28;20020;-77
2022/03/04 07:44:59;;;;;;;23.30;6.88;;;1.60;99.90;;;;;;5093603;28;20034;-77
2022/03/04 07:47:24;;;;;;;19.85;6.88;;;1.70;99.90;;;;;;5094037;28;20035;-77
2022/03/04 07:49:50;;;;;;;20.33;7.22;;;1.80;99.90;;;;;;5092913;28;20024;-77
2022/03/04 07:52:16;;;;;;;18.95;6.75;;;2.00;99.90;;;;;;5093827;28;20026;-77
2022/03/04 07:54:41;;;;;;;21.63;6.95;;;2.10;99.90;;;;;;5094205;28;20066;-77
2022/03/04 07:57:07;;;;;;;18.05;7.03;;;2.20;99.90;;;;;;5094070;28;20024;-78
2022/03/04 07:59:33;;;;;;;21.38;7.63;;;2.30;99.90;;;;;;5093946;28;20081;-77
2022/03/04 08:01:58;;;;;;;20.15;7.82;;;2.40;99.90;;;;;;5094161;28;20024;-77
2022/03/04 08:04:24;;;;;;;20.27;7.22;;;2.50;99.90;;;;;;5093789;28;20020;-77
2022/03/04 08:06:49;;;;;;;17.42;6.15;;;2.60;99.90;;;;;;5093858;28;20154;-77
2022/03/04 08:09:15;;;;;;;20.88;7.53;;;2.70;99.90;;;;;;5093930;28;20020;-77
2022/03/04 08:11:41;;;;;;;21.25;6.68;;;2.90;99.90;;;;;;5094112;28;20020;-77
2022/03/04 08:14:06;;;;;;;22.63;6.63;;;3.00;99.90;;;;;;5092549;28;20028;-77
2022/03/04 08:16:33;;;;;;;18.98;6.97;;;3.00;99.90;;;;;;5093721;28;20373;-77
2022/03/04 08:19:02;;;;;;;19.42;6.25;;;3.10;99.90;;;;;;5093142;28;20028;-77
2022/03/04 08:21:27;;;;;;;19.20;7.25;;;3.20;99.90;;;;;;5093135;28;20492;-78
2022/03/04 08:23:53;;;;;;;17.48;6.25;;;3.30;99.90;;;;;;5094637;28;20035;-77
2022/03/04 08:26:19;;;;;;;16.48;6.38;;;3.40;99.90;;;;;;5096844;28;20034;-77
2022/03/04 08:28:45;;;;;;;13.88;5.50;;;3.50;99.90;;;;;;5095456;28;20421;-77
2022/03/04 08:31:11;;;;;;;19.38;6.35;;;3.60;99.90;;;;;;5096099;28;20107;-77
2022/03/04 08:33:38;;;;;;;18.52;6.57;;;3.80;99.90;;;;;;5096138;28;20020;-77
2022/03/04 08:36:05;;;;;;;20.38;6.15;;;3.90;99.90;;;;;;5095834;28;20077;-77
2022/03/04 08:38:31;;;;;;;17.90;6.38;;;3.90;99.90;;;;;;5095857;28;20024;-77
2022/03/04 08:40:57;;;;;;;17.80;7.15;;;4.00;99.90;;;;;;5094499;28;20109;-77
2022/03/04 08:43:22;;;;;;;20.73;6.72;;;4.10;99.90;;;;;;5094202;28;20040;-77
2022/03/04 08:45:48;;;;;;;16.92;6.30;;;4.20;99.90;;;;;;5094103;28;20506;-77
2022/03/04 08:48:13;;;;;;;16.63;6.00;;;4.30;99.90;;;;;;5094415;28;20508;-77
2022/03/04 08:50:39;;;;;;;17.45;6.15;;;4.40;99.90;;;;;;5095869;28;20016;-77
2022/03/04 08:53:04;;;;;;;17.55;6.15;;;4.50;99.90;;;;;;5096154;28;20043;-77
2022/03/04 08:55:30;;;;;;;20.00;6.43;;;4.60;99.90;;;;;;5095421;28;20024;-77
2022/03/04 08:57:57;;;;;;;17.67;6.50;;;4.70;99.90;;;;;;5094160;28;20101;-77
2022/03/04 09:00:23;;;;;;;16.38;6.55;;;4.80;99.90;;;;;;5095777;28;20024;-78
2022/03/04 09:02:48;;;;;;;15.45;6.05;;;4.90;99.90;;;;;;5095324;28;20119;-76
2022/03/04 09:05:14;;;;;;;16.45;7.13;;;4.90;99.90;;;;;;5095356;28;20485;-77
2022/03/04 09:07:40;;;;;;;19.13;6.57;;;5.10;99.90;;;;;;5095331;28;20035;-76
2022/03/04 09:10:06;;;;;;;17.30;6.00;;;5.10;99.90;;;;;;5095311;28;20031;-76
2022/03/04 09:12:32;;;;;;;19.17;6.95;;;5.20;99.90;;;;;;5095192;28;20028;-77
2022/03/04 09:14:58;;;;;;;19.42;6.35;;;5.30;99.90;;;;;;5095225;28;20066;-76
2022/03/04 09:17:23;;;;;;;17.17;5.97;;;5.40;98.50;;;;;;5059651;28;1030806;-77
2022/03/04 09:19:49;;;;;;;18.95;6.43;;;5.60;98.40;;;;;;5096884;28;20024;-77
2022/03/04 09:22:15;;;;;;;16.60;5.55;;;5.60;98.40;;;;;;5096275;28;20035;-78
2022/03/04 09:24:40;;;;;;;16.55;6.07;;;5.80;97.00;;;;;;5094868;28;20024;-77
2022/03/04 09:27:06;;;;;;;16.02;6.00;;;5.80;95.90;;;;;;5096181;28;20020;-77
2022/03/04 09:29:32;;;;;;;14.77;6.10;;;6.00;95.50;;;;;;5096487;28;20019;-77
2022/03/04 09:31:58;;;;;;;19.30;6.28;;;6.10;93.40;;;;;;5096076;28;20023;-77
2022/03/04 09:34:24;;;;;;;16.05;6.30;;;6.20;93.10;;;;;;5095726;28;20446;-77
2022/03/04 09:36:49;;;;;;;15.68;5.97;;;6.30;92.50;;;;;;5096060;28;20103;-76
2022/03/04 09:39:15;;;;;;;16.20;6.10;;;6.40;90.80;;;;;;5095769;28;20031;-76
2022/03/04 09:41:44;;;;;;;19.33;6.65;;;6.50;90.60;;;;;;5096105;28;20063;-77
2022/03/04 09:44:11;;;;;;;16.25;5.88;;;6.60;90.10;;;;;;5094582;28;20032;-77
2022/03/04 09:46:39;;;;;;;17.88;6.80;;;6.70;89.70;;;;;;5094340;28;20081;-76
2022/03/04 09:49:06;;;;;;;14.45;6.80;;;6.70;89.00;;;;;;5096166;28;20047;-77
2022/03/04 09:51:31;;;;;;;19.30;7.05;;;6.90;89.90;;;;;;5094433;28;20013;-77
2022/03/04 09:53:57;;;;;;;16.25;5.90;;;7.00;87.10;;;;;;5094424;28;20024;-76
2022/03/04 09:56:22;;;;;;;14.93;6.00;;;7.10;86.60;;;;;;5095319;28;20012;-76
2022/03/04 09:58:49;;;;;;;16.98;6.18;;;7.20;86.80;;;;;;5094375;28;20024;-77
2022/03/04 10:01:16;;;;;;;15.45;6.40;;;7.20;82.30;;;;;;5094316;28;20488;-77
2022/03/04 10:03:47;;;;;;;17.35;6.20;;;7.30;82.40;;;;;;5094315;28;20099;-77
2022/03/04 10:06:14;;;;;;;15.75;5.95;;;7.40;83.00;;;;;;5096246;28;20074;-77
2022/03/04 10:08:45;;;;;;;15.63;5.75;;;7.50;82.20;;;;;;5095428;28;20050;-77
2022/03/04 10:11:11;;;;;;;16.77;7.07;;;7.60;81.50;;;;;;5095934;28;20472;-77
2022/03/04 10:13:52;;;;;;;18.23;7.00;;;7.70;79.90;;;;;;5095645;28;20107;-77
2022/03/04 10:16:25;;;;;;;16.05;6.20;;;7.80;80.00;;;;;;5095192;28;20028;-77
2022/03/04 10:19:15;;;;;;;17.17;6.85;;;7.90;80.60;;;;;;5095201;28;20024;-78
2022/03/04 10:22:03;;;;;;;18.38;6.40;;;8.00;79.90;;;;;;5095149;28;20028;-77
2022/03/04 10:24:30;;;;;;;14.77;5.95;;;8.10;79.50;;;;;;5094014;28;20032;-77
2022/03/04 10:27:07;;;;;;;16.52;6.88;;;8.20;79.40;;;;;;5095955;28;20108;-78
2022/03/04 10:29:34;;;;;;;15.25;5.40;;;8.40;78.60;;;;;;5094967;28;20020;-77
2022/03/04 10:32:05;;;;;;;20.30;6.75;;;8.50;76.40;;;;;;5095070;28;20028;-77
2022/03/04 10:34:53;;;;;;;15.10;6.07;;;8.60;75.00;;;;;;5094955;28;20055;-77
2022/03/04 10:37:40;;;;;;;14.55;5.90;;;8.60;75.00;;;;;;5093384;28;20030;-77
2022/03/04 10:40:17;;;;;;;14.23;5.30;;;8.70;75.90;;;;;;5095188;28;20393;-77
2022/03/04 10:43:01;;;;;;;14.43;6.57;;;8.90;72.40;;;;;;5093600;28;20020;-77
2022/03/04 10:45:40;;;;;;;18.35;5.65;;;9.00;71.90;;;;;;5094067;28;20051;-77
2022/03/04 10:48:08;;;;;;;15.63;5.80;;;9.00;71.80;;;;;;5095757;28;20036;-78
2022/03/04 10:50:42;;;;;;;13.55;5.80;;;9.10;70.50;;;;;;5096589;28;20020;-78
2022/03/04 10:53:10;;;;;;;14.40;5.75;;;9.20;70.50;;;;;;5095343;28;20389;-77
2022/03/04 10:55:42;;;;;;;14.30;5.78;;;9.30;69.30;;;;;;5095107;28;20149;-77
2022/03/04 10:58:18;;;;;;;16.23;5.63;;;9.40;68.80;;;;;;5095181;28;20024;-77
2022/03/04 11:00:46;;;;;;;13.85;5.53;;;9.60;65.40;;;;;;5094674;28;20024;-77
2022/03/04 11:03:21;;;;;;;12.65;5.47;;;9.60;64.30;;;;;;5093327;28;20024;-77
2022/03/04 11:05:48;;;;;;;15.90;5.75;;;9.70;65.50;;;;;;5094569;28;20481;-77
2022/03/04 11:08:14;;;;;;;16.23;6.05;;;9.80;64.20;;;;;;5095055;28;20018;-77
2022/03/04 11:10:40;;;;;;;12.10;5.00;;;9.90;62.20;;;;;;5093125;28;20028;-77
2022/03/04 11:13:08;;;;;;;18.02;6.28;;;10.00;63.60;;;;;;5093151;28;20016;-77
2022/03/04 11:15:35;;;;;;;16.55;5.55;;;10.10;60.90;;;;;;5092979;28;20035;-77
2022/03/04 11:18:03;;;;;;;13.20;4.75;;;10.20;63.00;;;;;;5092899;28;20036;-77
2022/03/04 11:20:29;;;;;;;17.02;5.05;;;10.40;61.40;;;;;;5094326;28;20020;-77
2022/03/04 11:22:55;;;;;;;15.18;5.88;;;10.50;59.90;;;;;;5094364;28;20388;-77
2022/03/04 11:25:22;;;;;;;14.90;5.35;;;10.60;59.30;;;;;;5094059;28;20024;-77
2022/03/04 11:27:52;;;;;;;13.38;5.90;;;10.80;58.70;;;;;;5092869;28;20016;-77
2022/03/04 11:30:41;;;;;;;12.65;5.60;;;10.90;58.30;;;;;;5093008;28;20023;-78
2022/03/04 11:33:15;;;;;;;13.35;5.10;;;11.00;56.90;;;;;;5094714;28;20031;-78
2022/03/04 11:35:41;;;;;;;16.20;5.47;;;11.10;57.40;;;;;;5092911;28;20496;-77
2022/03/04 11:38:06;;;;;;;13.80;5.57;;;11.30;56.00;;;;;;5094188;28;20024;-77
2022/03/04 11:40:35;;;;;;;13.48;5.45;;;11.50;54.00;;;;;;5094538;28;20061;-77
2022/03/04 11:43:06;;;;;;;11.82;5.10;;;11.60;52.80;;;;;;5094451;28;20027;-77
2022/03/04 11:45:33;;;;;;;12.95;5.03;;;11.70;52.80;;;;;;5094285;28;20021;-77
2022/03/04 11:48:11;;;;;;;14.30;5.78;;;11.80;52.10;;;;;;5095098;28;20020;-77
2022/03/04 11:50:58;;;;;;;12.65;4.95;;;11.90;52.80;;;;;;5093027;28;20031;-78
2022/03/04 11:53:25;;;;;;;14.05;5.57;;;12.10;53.10;;;;;;5094922;28;20024;-78
2022/03/04 11:56:26;;;;;;;13.45;5.53;;;12.10;50.30;;;;;;5094506;28;20111;-77
2022/03/04 11:58:54;;;;;;;10.32;3.88;;;12.20;50.70;;;;;;5012057;28;20104;-78
2022/03/04 12:01:27;;;;;;;12.90;5.45;;;12.40;50.90;;;;;;5079100;28;20040;-78
2022/03/04 12:04:14;;;;;;;13.55;5.40;;;12.60;52.10;;;;;;5094312;28;20028;-77
2022/03/04 12:06:40;;;;;;;17.75;6.47;;;12.70;54.80;;;;;;5094134;28;20099;-77
2022/03/04 12:09:28;;;;;;;10.18;4.85;;;12.80;54.20;;;;;;5094457;28;20016;-77
2022/03/04 12:12:11;;;;;;;11.98;4.38;;;13.00;49.90;;;;;;5094733;28;20459;-77
2022/03/04 12:14:47;;;;;;;13.52;5.60;;;13.10;48.60;;;;;;5094022;28;20078;-77
2022/03/04 12:17:15;;;;;;;12.02;4.88;;;13.00;49.10;;;;;;5092932;28;20032;-77
2022/03/04 12:19:40;;;;;;;13.20;5.00;;;13.00;49.30;;;;;;5092924;28;20110;-77
2022/03/04 12:22:07;;;;;;;12.18;5.75;;;13.20;50.10;;;;;;5092629;28;20066;-77
2022/03/04 12:24:35;;;;;;;10.30;4.85;;;13.50;48.80;;;;;;5094158;28;20427;-77
2022/03/04 12:27:02;;;;;;;13.05;6.10;;;13.60;50.00;;;;;;5094198;28;20115;-78
2022/03/04 12:29:46;;;;;;;10.40;4.80;;;13.80;50.90;;;;;;5093006;28;20013;-78
2022/03/04 12:32:13;;;;;;;11.85;4.97;;;14.00;48.20;;;;;;5092333;28;20020;-78
2022/03/04 12:34:59;;;;;;;10.70;4.10;;;14.00;48.30;;;;;;5093658;28;20485;-77
2022/03/04 12:37:25;;;;;;;13.32;4.32;;;14.00;48.10;;;;;;5092615;28;20036;-77
2022/03/04 12:39:51;;;;;;;10.82;4.18;;;14.20;48.40;;;;;;5093737;28;20056;-77
2022/03/04 12:42:20;;;;;;;12.68;3.95;;;14.40;46.40;;;;;;5092347;28;20054;-77
2022/03/04 12:44:46;;;;;;;8.77;3.78;;;14.50;44.30;;;;;;5094166;28;20377;-78
2022/03/04 12:47:13;;;;;;;9.30;4.20;;;14.70;45.20;;;;;;5093809;28;20020;-77